Terminal Aerodrome Forecast
Issued by NWS

Home | Current Version | Previous Version | Text Only | Print | Product List | Glossary On
Versions: 1 2 3 4 5 6 7 8 9 10 11 12 13 14 15 16 17 18 19 20 21 22 23 24
000
FTUS41 KGYX 241331 AAA
TAFPSM
TAF AMD
KPSM 241331Z 2414/2512 34011KT 2SM -SHRA OVC005
     FM241500 33011KT P6SM VCSH SCT015 OVC035
     FM241800 31009KT P6SM BKN040 BKN080=

USA.gov is the U.S. government's official web portal to all federal, state and local government web resources and services.